Time;durP1;ratioP1;P1;durP2;ratioP2;P2;SDS_P1;SDS_P2;PMS_P1;PMS_P2;Temp;Humidity;BMP_temperature;BMP_pressure;BME280_temperature;BME280_humidity;BME280_pressure;Samples;Min_cycle;Max_cycle;Signal;HPM_P1;HPM_P2
2023/04/30 00:02:01;;;;;;;6.65;5.50;;;;;;;13.88;68.67;98586.09;7385060;19;19915;-74
2023/04/30 00:04:28;;;;;;;6.90;5.60;;;;;;;13.91;69.37;98589.25;7389689;19;20342;-74
2023/04/30 00:06:55;;;;;;;7.28;6.07;;;;;;;13.92;69.19;98593.53;7388882;19;19927;-74
2023/04/30 00:09:22;;;;;;;5.97;5.38;;;;;;;13.89;69.05;98599.22;7385661;19;19914;-74
2023/04/30 00:11:49;;;;;;;7.05;5.22;;;;;;;13.89;69.32;98604.53;7387964;19;19941;-74
2023/04/30 00:14:15;;;;;;;12.05;6.13;;;;;;;13.90;68.46;98600.91;7381663;19;19921;-74
2023/04/30 00:16:42;;;;;;;9.48;6.45;;;;;;;13.89;68.91;98604.53;7389429;19;19940;-74
2023/04/30 00:19:09;;;;;;;6.38;5.60;;;;;;;13.89;67.97;98601.06;7383388;19;19925;-74
2023/04/30 00:21:36;;;;;;;7.53;6.13;;;;;;;13.87;68.61;98598.56;7390055;19;19922;-74
2023/04/30 00:24:03;;;;;;;11.35;6.15;;;;;;;13.84;68.55;98607.69;7384100;19;19930;-74
2023/04/30 00:26:30;;;;;;;7.78;5.10;;;;;;;13.86;68.43;98604.88;7386950;19;20745;-74
2023/04/30 00:28:57;;;;;;;7.80;5.70;;;;;;;13.86;68.59;98596.91;7379231;19;20248;-74
2023/04/30 00:31:24;;;;;;;7.75;5.60;;;;;;;13.84;67.72;98604.22;7380794;19;20390;-74
2023/04/30 00:33:50;;;;;;;8.57;5.63;;;;;;;13.88;67.84;98600.22;7387175;19;19927;-74
2023/04/30 00:36:18;;;;;;;8.18;6.57;;;;;;;13.85;68.03;98608.56;7379152;19;19994;-74
2023/04/30 00:38:44;;;;;;;9.65;6.95;;;;;;;13.83;68.51;98605.22;7386537;19;19929;-74
2023/04/30 00:41:12;;;;;;;7.97;6.55;;;;;;;13.87;69.14;98605.72;7384602;19;19930;-74
2023/04/30 00:43:39;;;;;;;7.72;6.43;;;;;;;13.81;68.57;98604.56;7379200;19;19937;-74
2023/04/30 00:46:05;;;;;;;8.07;5.93;;;;;;;13.82;69.16;98603.56;7380660;19;19925;-74
2023/04/30 00:48:32;;;;;;;9.18;6.10;;;;;;;13.84;68.65;98606.88;7384947;19;19925;-74
2023/04/30 00:51:01;;;;;;;8.80;5.75;;;;;;;13.82;68.90;98599.09;7384596;19;19930;-74
2023/04/30 00:53:28;;;;;;;7.10;6.40;;;;;;;13.82;69.05;98607.06;7385886;19;19933;-74
2023/04/30 00:55:56;;;;;;;10.38;7.13;;;;;;;13.77;68.36;98612.06;7385507;19;19911;-74
2023/04/30 00:58:24;;;;;;;9.55;5.47;;;;;;;13.79;68.79;98610.03;7376445;19;19918;-74
2023/04/30 01:00:52;;;;;;;7.40;5.70;;;;;;;13.77;68.51;98613.88;7386031;19;19917;-74
2023/04/30 01:03:19;;;;;;;5.88;4.43;;;;;;;13.75;68.61;98607.91;7376838;19;19925;-74
2023/04/30 01:05:46;;;;;;;7.57;4.05;;;;;;;13.75;68.12;98607.91;7386467;19;20347;-75
2023/04/30 01:08:13;;;;;;;3.72;3.40;;;;;;;13.73;68.62;98609.91;7379004;19;19958;-74
2023/04/30 01:10:45;;;;;;;6.22;3.22;;;;;;;13.71;68.37;98609.25;7387805;19;19984;-75
2023/04/30 01:13:18;;;;;;;3.40;3.10;;;;;;;13.65;68.05;98621.38;7382938;19;19962;-75
2023/04/30 01:15:50;;;;;;;3.90;3.60;;;;;;;13.62;69.19;98613.75;7385804;19;19943;-75
2023/04/30 01:18:27;;;;;;;3.05;2.85;;;;;;;13.59;68.80;98609.59;7377037;19;19918;-74
2023/04/30 01:20:58;;;;;;;2.33;2.13;;;;;;;13.65;69.05;98616.06;7382651;19;19955;-75
2023/04/30 01:23:36;;;;;;;2.55;2.30;;;;;;;13.65;69.04;98618.72;7378847;19;19919;-75
2023/04/30 01:26:14;;;;;;;2.50;2.30;;;;;;;13.66;68.95;98603.59;7385628;19;19926;-75
2023/04/30 01:28:45;;;;;;;2.03;1.90;;;;;;;13.64;68.81;98605.59;7384783;19;19929;-75
2023/04/30 01:31:17;;;;;;;2.47;2.22;;;;;;;13.59;68.46;98609.59;7379599;19;19924;-74
2023/04/30 01:33:44;;;;;;;1.95;1.88;;;;;;;13.53;68.65;98612.94;7385937;19;20346;-74
2023/04/30 01:36:32;;;;;;;1.95;1.85;;;;;;;13.51;68.58;98601.66;7377762;19;20264;-74
2023/04/30 01:39:19;;;;;;;1.95;1.85;;;;;;;13.56;69.25;98606.44;7383931;19;19922;-74
2023/04/30 01:42:10;;;;;;;1.77;1.67;;;;;;;13.50;68.94;98599.97;7385289;19;19918;-75
2023/04/30 01:44:53;;;;;;;1.30;1.30;;;;;;;13.50;68.32;98610.59;7382239;19;19923;-74
2023/04/30 01:47:27;;;;;;;1.80;1.77;;;;;;;13.52;68.56;98613.94;7382186;19;20402;-75
2023/04/30 01:50:04;;;;;;;1.98;1.88;;;;;;;13.51;68.27;98603.47;7386311;19;19918;-74
2023/04/30 01:52:40;;;;;;;1.10;1.10;;;;;;;13.48;68.33;98602.00;7374212;19;19937;-74
2023/04/30 01:55:11;;;;;;;23.05;3.00;;;;;;;13.44;68.86;98598.00;7379156;19;20351;-76
2023/04/30 01:57:39;;;;;;;;;;;;;;;13.39;68.77;98593.19;7385289;19;19918;-74
2023/04/30 02:00:09;;;;;;;1.20;1.20;;;;;;;13.38;68.69;98604.81;7385377;19;19922;-74
2023/04/30 02:02:38;;;;;;;1.38;1.38;;;;;;;13.39;69.16;98601.16;7383854;19;19926;-74
2023/04/30 02:05:06;;;;;;;0.95;0.95;;;;;;;13.38;68.84;98604.00;7388240;19;19930;-74
2023/04/30 02:07:41;;;;;;;1.58;1.52;;;;;;;13.37;68.57;98605.78;7380353;19;19915;-75
2023/04/30 02:10:08;;;;;;;0.90;0.90;;;;;;;13.38;69.07;98601.34;7381635;19;19925;-75
2023/04/30 02:12:35;;;;;;;0.80;0.80;;;;;;;13.35;69.03;98599.03;7383009;19;19918;-74
2023/04/30 02:15:03;;;;;;;1.40;1.40;;;;;;;13.32;68.82;98596.66;7386221;19;19925;-75
2023/04/30 02:17:31;;;;;;;0.70;0.70;;;;;;;13.32;69.27;98592.22;7378652;19;19933;-75
2023/04/30 02:19:58;;;;;;;0.98;0.98;;;;;;;13.29;68.66;98591.69;7384737;19;19918;-75
2023/04/30 02:22:25;;;;;;;4.22;3.60;;;;;;;13.27;68.81;98594.53;7377053;19;20469;-75
2023/04/30 02:24:54;;;;;;;1.45;1.45;;;;;;;13.24;68.98;98592.16;7382925;19;19929;-75
2023/04/30 02:27:22;;;;;;;1.38;1.38;;;;;;;13.14;69.37;98588.88;7370771;19;19915;-75
2023/04/30 02:29:49;;;;;;;0.70;0.70;;;;;;;13.15;69.79;98588.69;7386139;19;19937;-75
2023/04/30 02:32:16;;;;;;;0.90;0.90;;;;;;;13.19;69.06;98591.84;7381883;19;20006;-74
2023/04/30 02:34:43;;;;;;;1.50;1.50;;;;;;;13.23;69.40;98587.03;7384863;19;21276;-75
2023/04/30 02:37:10;;;;;;;1.73;1.73;;;;;;;13.25;68.75;98585.03;7376984;19;19938;-75
2023/04/30 02:39:37;;;;;;;1.27;1.27;;;;;;;13.22;69.51;98586.22;7381316;19;19919;-75
2023/04/30 02:42:05;;;;;;;1.08;1.08;;;;;;;13.10;69.16;98583.03;7383049;19;19971;-75
2023/04/30 02:44:32;;;;;;;1.42;1.38;;;;;;;13.13;69.00;98590.69;7378193;19;19914;-75
2023/04/30 02:47:01;;;;;;;1.17;1.17;;;;;;;13.07;68.82;98582.56;7382995;19;19946;-75
2023/04/30 02:49:28;;;;;;;1.25;1.25;;;;;;;13.06;69.47;98584.38;7378020;19;19926;-75
2023/04/30 02:51:55;;;;;;;2.13;2.03;;;;;;;13.09;69.76;98581.41;7382426;19;19945;-75
2023/04/30 02:54:21;;;;;;;1.75;1.75;;;;;;;13.12;69.03;98586.38;7378547;19;20366;-74
2023/04/30 02:56:48;;;;;;;0.93;0.93;;;;;;;13.07;69.23;98578.06;7385244;19;19933;-75
2023/04/30 02:59:15;;;;;;;1.20;1.20;;;;;;;13.04;68.92;98572.28;7373967;19;19926;-74
2023/04/30 03:01:42;;;;;;;1.38;1.38;;;;;;;13.04;68.88;98582.91;7379621;19;19914;-75
2023/04/30 03:04:09;;;;;;;0.45;0.32;;;;;;;13.09;69.20;98576.09;7386332;19;20296;-76
2023/04/30 03:06:35;;;;;;;1.63;1.60;;;;;;;12.89;68.48;98574.75;7378235;19;19945;-76
2023/04/30 03:09:02;;;;;;;1.30;1.30;;;;;;;13.00;69.06;98573.59;7383959;19;19919;-75
2023/04/30 03:11:29;;;;;;;0.43;0.43;;;;;;;13.01;69.01;98576.09;7378295;19;20651;-76
2023/04/30 03:13:56;;;;;;;0.85;0.85;;;;;;;13.00;68.46;98579.72;7379996;19;19978;-75
2023/04/30 03:16:23;;;;;;;1.80;1.80;;;;;;;13.04;69.31;98580.25;7374847;19;19919;-75
2023/04/30 03:18:50;;;;;;;0.88;0.88;;;;;;;13.03;69.14;98587.34;7380743;19;19918;-76
2023/04/30 03:21:16;;;;;;;0.82;0.82;;;;;;;13.01;69.30;98577.91;7376356;19;19918;-75
2023/04/30 03:23:43;;;;;;;1.40;1.40;;;;;;;13.07;69.72;98583.38;7380384;19;19911;-75
2023/04/30 03:26:11;;;;;;;0.95;0.95;;;;;;;13.07;69.76;98583.38;7373190;19;19915;-75
2023/04/30 03:28:37;;;;;;;1.27;1.20;;;;;;;13.11;70.04;98578.56;7380827;19;19923;-75
2023/04/30 03:31:04;;;;;;;0.88;0.88;;;;;;;13.13;70.37;98588.03;7381807;19;19922;-75
2023/04/30 03:33:32;;;;;;;1.00;1.00;;;;;;;13.13;70.41;98589.84;7373883;19;20189;-74
2023/04/30 03:35:59;;;;;;;0.93;0.93;;;;;;;13.14;69.72;98583.56;7384447;19;19922;-75
2023/04/30 03:38:25;;;;;;;0.90;0.90;;;;;;;13.13;69.35;98581.88;7375015;19;19929;-74
2023/04/30 03:40:52;;;;;;;0.25;0.25;;;;;;;13.10;69.72;98580.38;7381632;19;20286;-74
2023/04/30 03:43:19;;;;;;;0.88;0.88;;;;;;;13.10;70.28;98590.19;7382079;19;19914;-75
2023/04/30 03:45:46;;;;;;;1.23;1.23;;;;;;;13.10;70.07;98588.34;7386065;19;20267;-74
2023/04/30 03:48:13;;;;;;;2.05;2.05;;;;;;;13.10;70.35;98583.03;7383633;19;20419;-74
2023/04/30 03:50:40;;;;;;;1.15;1.15;;;;;;;13.13;70.44;98584.53;7386228;19;20331;-74
2023/04/30 03:53:06;;;;;;;1.35;1.35;;;;;;;13.11;70.42;98584.72;7386525;19;20346;-75
2023/04/30 03:55:34;;;;;;;0.93;0.93;;;;;;;13.06;70.04;98587.06;7386652;19;20666;-74
2023/04/30 03:58:01;;;;;;;1.52;1.52;;;;;;;13.07;70.56;98588.69;7383586;19;19919;-75
2023/04/30 04:00:28;;;;;;;0.93;0.93;;;;;;;13.06;70.13;98587.06;7381288;19;19919;-74
2023/04/30 04:02:56;;;;;;;1.70;1.70;;;;;;;13.03;70.15;98579.38;7388504;19;20341;-75
2023/04/30 04:05:23;;;;;;;1.08;1.08;;;;;;;13.02;70.45;98580.41;7381856;19;22334;-75
2023/04/30 04:07:50;;;;;;;0.88;0.88;;;;;;;13.03;69.96;98589.19;7386135;19;20343;-75
2023/04/30 04:10:17;;;;;;;1.02;1.02;;;;;;;13.03;70.83;98587.34;7385577;19;19925;-75
2023/04/30 04:12:45;;;;;;;0.95;0.95;;;;;;;13.01;70.91;98591.19;7388077;19;19915;-75
2023/04/30 04:15:12;;;;;;;0.70;0.70;;;;;;;12.95;71.17;98590.00;7387951;19;19919;-75
2023/04/30 04:17:39;;;;;;;1.40;1.40;;;;;;;12.97;70.57;98593.34;7383417;19;19915;-75
2023/04/30 04:20:07;;;;;;;0.30;0.30;;;;;;;12.97;70.35;98598.66;7388177;19;20559;-76
2023/04/30 04:22:35;;;;;;;0.80;0.80;;;;;;;13.00;70.61;98603.63;7381590;19;19919;-75
2023/04/30 04:25:01;;;;;;;3.42;3.22;;;;;;;13.03;70.89;98611.25;7388517;19;19915;-75
2023/04/30 04:27:31;;;;;;;1.00;1.00;;;;;;;13.00;69.92;98606.28;7381659;19;19919;-75
2023/04/30 04:29:57;;;;;;;0.70;0.70;;;;;;;13.01;70.06;98604.47;7388942;19;19930;-76
2023/04/30 04:32:24;;;;;;;1.00;1.00;;;;;;;13.01;70.06;98604.47;7380429;19;19915;-75
2023/04/30 04:34:53;;;;;;;0.80;0.80;;;;;;;13.02;70.56;98609.59;7389101;19;19939;-76
2023/04/30 04:37:20;;;;;;;0.80;0.80;;;;;;;13.02;70.42;98612.25;7384656;19;19922;-75
2023/04/30 04:39:46;;;;;;;0.77;0.77;;;;;;;13.03;70.57;98613.09;7381261;19;19957;-75
2023/04/30 04:42:16;;;;;;;1.00;1.00;;;;;;;13.01;70.46;98607.13;7383770;19;19918;-75
2023/04/30 04:44:43;;;;;;;0.70;0.70;;;;;;;13.01;70.45;98610.63;7383746;19;19974;-75
2023/04/30 04:47:11;;;;;;;0.80;0.80;;;;;;;13.01;70.47;98607.97;7388004;19;19919;-75
2023/04/30 04:49:38;;;;;;;0.85;0.85;;;;;;;13.01;70.60;98610.63;7386164;19;20002;-75
2023/04/30 04:52:05;;;;;;;0.88;0.88;;;;;;;13.02;69.91;98619.41;7386563;19;19926;-75
2023/04/30 04:54:33;;;;;;;1.05;1.05;;;;;;;13.01;69.86;98607.97;7379180;19;19918;-75
2023/04/30 04:57:01;;;;;;;1.20;1.20;;;;;;;13.06;70.50;98618.06;7385390;19;19922;-75
2023/04/30 04:59:28;;;;;;;0.88;0.88;;;;;;;13.08;69.97;98613.44;7381382;19;19922;-75
2023/04/30 05:01:55;;;;;;;1.30;1.30;;;;;;;13.11;69.91;98607.78;7382203;19;19926;-75
2023/04/30 05:04:22;;;;;;;0.85;0.85;;;;;;;13.15;70.41;98607.28;7384976;19;19923;-75
2023/04/30 05:06:49;;;;;;;0.85;0.85;;;;;;;13.22;70.07;98611.91;7382763;19;19949;-75
2023/04/30 05:09:16;;;;;;;0.95;0.95;;;;;;;13.24;69.64;98609.94;7383975;19;20379;-75
2023/04/30 05:11:45;;;;;;;0.95;0.95;;;;;;;13.30;69.78;98610.16;7384351;19;19926;-75
2023/04/30 05:14:11;;;;;;;0.85;0.85;;;;;;;13.36;69.73;98608.63;7379588;19;19919;-75
2023/04/30 05:16:38;;;;;;;1.00;1.00;;;;;;;13.39;69.90;98618.94;7379445;19;20339;-75
2023/04/30 05:19:08;;;;;;;0.70;0.70;;;;;;;13.38;69.46;98604.81;7387085;19;19950;-75
2023/04/30 05:21:35;;;;;;;0.85;0.85;;;;;;;13.45;69.49;98617.41;7381836;19;19919;-75
2023/04/30 05:24:03;;;;;;;0.95;0.95;;;;;;;13.51;69.47;98614.94;7385475;19;19942;-75
2023/04/30 05:26:29;;;;;;;1.60;1.60;;;;;;;13.52;69.08;98621.06;7380358;19;19919;-75
2023/04/30 05:28:56;;;;;;;0.77;0.77;;;;;;;13.57;68.98;98622.22;7383152;19;19911;-75
2023/04/30 05:31:23;;;;;;;0.90;0.90;;;;;;;13.60;69.02;98626.38;7384651;19;20641;-75
2023/04/30 05:33:50;;;;;;;0.80;0.80;;;;;;;13.64;69.66;98622.41;7388635;19;19923;-75
2023/04/30 05:36:17;;;;;;;0.65;0.65;;;;;;;13.66;68.94;98616.91;7383139;19;19919;-75
2023/04/30 05:38:44;;;;;;;0.75;0.75;;;;;;;13.72;69.25;98621.56;7383143;19;19919;-75
2023/04/30 05:41:11;;;;;;;0.70;0.70;;;;;;;13.79;68.81;98617.19;7383553;19;19918;-75
2023/04/30 05:43:38;;;;;;;0.85;0.85;;;;;;;13.82;69.20;98616.84;7378747;19;20355;-74
2023/04/30 05:46:05;;;;;;;2.05;2.05;;;;;;;13.96;69.01;98618.00;7383231;19;19922;-74
2023/04/30 05:48:32;;;;;;;0.90;0.90;;;;;;;13.96;68.15;98618.00;7378260;19;19915;-74
2023/04/30 05:50:59;;;;;;;0.80;0.80;;;;;;;14.02;67.76;98617.28;7382691;19;19922;-74
2023/04/30 05:53:26;;;;;;;1.20;1.20;;;;;;;14.01;67.49;98618.31;7379351;19;19925;-74
2023/04/30 05:55:53;;;;;;;0.65;0.65;;;;;;;14.02;67.78;98619.97;7383300;19;19922;-75
2023/04/30 05:58:20;;;;;;;1.17;1.17;;;;;;;13.92;67.33;98617.50;7380337;19;19911;-75
2023/04/30 06:00:50;;;;;;;0.30;0.30;;;;;;;13.88;67.84;98615.38;7381443;19;20285;-74
2023/04/30 06:03:17;;;;;;;;;;;;;;;13.94;67.80;98607.50;7385401;19;19914;-74
2023/04/30 06:05:45;;;;;;;1.00;1.00;;;;;;;13.91;67.33;98617.69;7384154;19;20350;-74
2023/04/30 06:08:12;;;;;;;0.90;0.90;;;;;;;13.93;68.21;98608.53;7378986;19;19932;-75
2023/04/30 06:10:39;;;;;;;1.70;1.70;;;;;;;13.97;66.80;98609.81;7378529;19;19941;-74
2023/04/30 06:13:06;;;;;;;0.82;0.82;;;;;;;14.07;67.72;98612.28;7379259;19;19950;-74
2023/04/30 06:15:33;;;;;;;0.60;0.60;;;;;;;14.16;68.16;98605.91;7379962;19;20268;-75
2023/04/30 06:17:59;;;;;;;1.05;1.05;;;;;;;14.19;66.68;98604.75;7384450;19;19919;-75
2023/04/30 06:20:26;;;;;;;2.63;2.55;;;;;;;14.26;67.24;98616.38;7383591;19;19978;-74
2023/04/30 06:22:53;;;;;;;1.08;1.08;;;;;;;14.31;68.03;98614.00;7388382;19;19945;-77
2023/04/30 06:25:21;;;;;;;1.42;1.38;;;;;;;14.29;65.85;98618.69;7386755;19;19919;-74
2023/04/30 06:27:47;;;;;;;1.10;1.10;;;;;;;14.33;67.17;98624.50;7385971;19;19986;-74
2023/04/30 06:30:14;;;;;;;0.80;0.80;;;;;;;14.37;65.91;98617.81;7384862;19;19933;-74
2023/04/30 06:32:41;;;;;;;0.88;0.88;;;;;;;14.40;66.45;98623.63;7382940;19;19918;-74
2023/04/30 06:35:08;;;;;;;1.00;1.00;;;;;;;14.47;66.26;98619.25;7388716;19;19922;-76
2023/04/30 06:37:36;;;;;;;0.77;0.77;;;;;;;14.42;66.05;98621.59;7379572;19;19978;-75
2023/04/30 06:40:05;;;;;;;1.42;1.42;;;;;;;14.47;65.89;98621.09;7386814;19;19943;-75
2023/04/30 06:42:35;;;;;;;1.08;1.08;;;;;;;14.46;66.33;98628.25;7383289;19;19919;-75
2023/04/30 06:45:02;;;;;;;1.60;1.60;;;;;;;14.49;66.40;98621.75;7388192;19;20263;-74
2023/04/30 06:47:37;;;;;;;1.15;1.15;;;;;;;14.56;66.76;98624.56;7381869;19;19918;-75
2023/04/30 06:50:04;;;;;;;1.17;1.17;;;;;;;14.55;66.51;98631.72;7389314;19;19929;-76
2023/04/30 06:52:31;;;;;;;1.27;1.27;;;;;;;14.62;66.29;98630.03;7379754;19;19918;-74
2023/04/30 06:54:57;;;;;;;0.70;0.70;;;;;;;14.71;67.15;98625.47;7387382;19;19941;-76
2023/04/30 06:57:24;;;;;;;1.20;1.20;;;;;;;14.68;64.27;98625.81;7386555;19;19923;-77
2023/04/30 06:59:51;;;;;;;1.35;1.35;;;;;;;14.75;64.95;98626.78;7386485;19;19941;-76
2023/04/30 07:02:18;;;;;;;0.77;0.77;;;;;;;14.91;65.62;98629.34;7387230;19;19936;-75
2023/04/30 07:04:48;;;;;;;0.68;0.68;;;;;;;14.80;64.61;98634.25;7384771;19;19943;-76
2023/04/30 07:07:15;;;;;;;1.48;1.48;;;;;;;14.83;64.52;98628.56;7384881;19;19918;-76
2023/04/30 07:09:41;;;;;;;0.98;0.75;;;;;;;14.89;65.01;98626.03;7383587;19;20307;-77
2023/04/30 07:12:09;;;;;;;2.88;2.63;;;;;;;15.00;67.02;98629.28;7386835;19;19956;-78
2023/04/30 07:14:36;;;;;;;0.77;0.77;;;;;;;15.22;66.30;98619.59;7381672;19;19915;-77
2023/04/30 07:17:03;;;;;;;0.95;0.95;;;;;;;15.22;63.82;98616.94;7388535;19;19915;-75
2023/04/30 07:19:31;;;;;;;0.70;0.70;;;;;;;15.23;64.20;98613.28;7391310;19;19915;-77
2023/04/30 07:21:58;;;;;;;0.95;0.95;;;;;;;15.16;64.26;98618.50;7391616;19;19914;-75
2023/04/30 07:24:24;;;;;;;0.98;0.98;;;;;;;15.10;64.13;98614.72;7392054;19;19937;-75
2023/04/30 07:26:51;;;;;;;0.45;0.45;;;;;;;15.09;63.79;98612.25;7390394;19;20391;-75
2023/04/30 07:29:18;;;;;;;1.35;1.35;;;;;;;15.07;63.31;98612.41;7390731;19;19977;-74
2023/04/30 07:31:45;;;;;;;0.95;0.95;;;;;;;15.24;63.96;98617.59;7394353;19;19920;-74
2023/04/30 07:34:12;;;;;;;1.00;1.00;;;;;;;15.27;64.52;98604.75;7392516;19;19921;-76
2023/04/30 07:36:39;;;;;;;0.73;0.73;;;;;;;15.25;63.42;98612.09;7385199;19;20255;-76
2023/04/30 07:39:06;;;;;;;2.15;1.65;;;;;;;15.37;62.92;98604.47;7392562;19;19927;-75
2023/04/30 07:41:33;;;;;;;1.02;1.02;;;;;;;15.45;64.65;98606.25;7387411;19;19926;-74
2023/04/30 07:44:00;;;;;;;0.98;0.98;;;;;;;15.48;64.29;98604.06;7392032;19;19995;-77
2023/04/30 07:46:27;;;;;;;0.10;0.10;;;;;;;15.44;63.42;98600.09;7390530;19;20568;-75
2023/04/30 07:48:54;;;;;;;0.85;0.85;;;;;;;15.50;64.54;98607.34;7393601;19;19926;-75
2023/04/30 07:51:21;;;;;;;1.08;1.08;;;;;;;15.52;61.38;98607.19;7390847;19;19925;-75
2023/04/30 07:53:47;;;;;;;1.33;1.33;;;;;;;15.53;62.57;98603.50;7387583;19;19925;-74
2023/04/30 07:56:14;;;;;;;0.70;0.70;;;;;;;15.61;61.91;98598.09;7392042;19;19950;-76
2023/04/30 07:58:41;;;;;;;1.20;1.20;;;;;;;15.74;62.58;98598.31;7386615;19;20350;-77
2023/04/30 08:01:08;;;;;;;1.05;1.05;;;;;;;15.83;61.58;98593.72;7389874;19;19959;-75
2023/04/30 08:03:35;;;;;;;0.65;0.65;;;;;;;15.87;60.78;98588.84;7389430;19;19922;-74
2023/04/30 08:06:03;;;;;;;0.82;0.82;;;;;;;15.94;58.98;98603.09;7389804;19;20371;-76
2023/04/30 08:08:30;;;;;;;0.70;0.70;;;;;;;15.93;59.50;98590.75;7393072;19;19919;-76
2023/04/30 08:10:57;;;;;;;3.25;1.27;;;;;;;16.02;59.55;98597.69;7393839;19;19918;-76
2023/04/30 08:13:24;;;;;;;0.65;0.65;;;;;;;16.06;60.27;98585.63;7389224;19;19933;-75
2023/04/30 08:15:50;;;;;;;0.30;0.30;;;;;;;16.26;59.68;98593.06;7388065;19;20328;-75
2023/04/30 08:18:17;;;;;;;0.68;0.68;;;;;;;16.33;59.20;98592.13;7390756;19;19946;-74
2023/04/30 08:20:44;;;;;;;0.60;0.60;;;;;;;16.38;56.14;98586.22;7388331;19;19935;-75
2023/04/30 08:23:11;;;;;;;0.60;0.60;;;;;;;16.49;58.17;98593.75;7392506;19;19925;-77
2023/04/30 08:25:37;;;;;;;0.93;0.93;;;;;;;16.36;55.63;98593.59;7388707;19;19914;-75
2023/04/30 08:28:05;;;;;;;0.50;0.50;;;;;;;16.42;55.39;98593.66;7388884;19;20287;-76
2023/04/30 08:30:32;;;;;;;1.33;1.33;;;;;;;16.52;56.34;98593.34;7386723;19;19915;-75
2023/04/30 08:32:59;;;;;;;0.85;0.85;;;;;;;16.61;54.72;98596.72;7388659;19;19911;-74
2023/04/30 08:35:28;;;;;;;1.00;1.00;;;;;;;16.83;56.36;98594.97;7388080;19;19923;-76
2023/04/30 08:37:55;;;;;;;0.10;0.10;;;;;;;16.97;53.83;98586.03;7386915;19;20512;-74
2023/04/30 08:40:21;;;;;;;0.90;0.90;;;;;;;17.21;54.22;98592.00;7393093;19;19923;-75
2023/04/30 08:43:10;;;;;;;1.25;1.23;;;;;;;17.30;53.27;98585.50;7389624;19;20343;-72
2023/04/30 08:45:37;;;;;;;0.88;0.88;;;;;;;17.23;52.78;98589.97;7382007;19;19925;-73
2023/04/30 08:48:04;;;;;;;0.50;0.50;;;;;;;17.18;51.35;98593.22;7391292;19;19918;-72
2023/04/30 08:50:31;;;;;;;0.73;0.73;;;;;;;17.18;53.48;98590.53;7384989;19;19947;-75
2023/04/30 08:52:58;;;;;;;0.10;0.10;;;;;;;17.22;52.59;98594.50;7387730;19;20267;-74
2023/04/30 08:55:28;;;;;;;0.50;0.50;;;;;;;17.32;53.72;98595.00;7389015;19;19922;-75
2023/04/30 08:57:55;;;;;;;1.35;1.35;;;;;;;17.38;52.05;98589.88;7387954;19;20363;-74
2023/04/30 09:00:22;;;;;;;0.70;0.70;;;;;;;17.48;50.36;98598.38;7386018;19;19911;-72
2023/04/30 09:02:49;;;;;;;0.50;0.50;;;;;;;17.57;50.91;98591.06;7389536;19;19930;-74
2023/04/30 09:05:16;;;;;;;1.25;1.25;;;;;;;17.53;49.62;98601.28;7389989;19;19947;-75
2023/04/30 09:07:44;;;;;;;0.80;0.80;;;;;;;17.50;50.53;98599.00;7381672;19;19919;-74
2023/04/30 09:10:31;;;;;;;1.15;1.15;;;;;;;17.42;50.72;98588.47;7388353;19;19951;-76
2023/04/30 09:13:00;;;;;;;0.60;0.60;;;;;;;17.44;50.98;98591.78;7388916;19;20663;-75
2023/04/30 09:15:28;;;;;;;1.27;1.27;;;;;;;17.61;50.51;98590.44;7387284;19;19933;-74
2023/04/30 09:18:20;;;;;;;0.77;0.77;;;;;;;17.63;50.24;98582.22;7386316;19;19922;-77
2023/04/30 09:21:00;;;;;;;1.10;1.00;;;;;;;17.66;50.53;98587.19;7382024;19;19934;-74
2023/04/30 09:23:27;;;;;;;0.65;0.65;;;;;;;17.69;49.83;98589.47;7382648;19;19923;-72
2023/04/30 09:25:54;;;;;;;0.88;0.88;;;;;;;17.76;50.73;98576.97;7386978;19;19942;-75
2023/04/30 09:28:27;;;;;;;0.65;0.65;;;;;;;18.03;51.15;98580.63;7390071;19;19926;-74
2023/04/30 09:30:58;;;;;;;1.45;1.45;;;;;;;18.07;46.98;98581.91;7385050;19;19935;-75
2023/04/30 09:33:24;;;;;;;0.32;0.32;;;;;;;18.54;50.61;98582.91;7390692;19;19949;-74
2023/04/30 09:35:51;;;;;;;0.52;0.52;;;;;;;18.92;50.47;98586.94;7388641;19;20624;-72
2023/04/30 09:38:25;;;;;;;0.65;0.65;;;;;;;18.90;49.49;98564.84;7386393;19;19922;-73
2023/04/30 09:40:52;;;;;;;0.70;0.70;;;;;;;18.79;46.45;98575.16;7382988;19;19926;-73
2023/04/30 09:43:19;;;;;;;0.43;0.43;;;;;;;18.65;48.02;98578.81;7392828;19;19915;-73
2023/04/30 09:45:48;;;;;;;1.15;1.15;;;;;;;18.52;45.96;98570.75;7383618;19;19925;-73
2023/04/30 09:48:15;;;;;;;0.85;0.85;;;;;;;18.37;47.43;98579.75;7389544;19;19918;-74
2023/04/30 09:50:46;;;;;;;0.68;0.68;;;;;;;18.47;48.61;98575.88;7382462;19;19973;-72
2023/04/30 09:53:16;;;;;;;1.65;1.65;;;;;;;18.58;50.24;98584.13;7385484;19;19915;-72
2023/04/30 09:55:44;;;;;;;;;;;;;;;18.48;47.81;98577.53;7386009;19;19926;-73
2023/04/30 09:58:11;;;;;;;2.08;1.95;;;;;;;18.68;49.08;98574.91;7386550;19;20291;-73
2023/04/30 10:00:38;;;;;;;0.75;0.75;;;;;;;18.80;49.59;98571.47;7383031;19;19922;-73
2023/04/30 10:03:10;;;;;;;0.70;0.70;;;;;;;18.95;44.26;98570.44;7388108;19;20351;-72
2023/04/30 10:05:40;;;;;;;1.10;1.10;;;;;;;19.12;49.29;98569.00;7385570;19;19942;-74
2023/04/30 10:08:12;;;;;;;0.55;0.55;;;;;;;19.16;47.59;98575.59;7387850;19;19922;-73
2023/04/30 10:10:40;;;;;;;0.20;0.15;;;;;;;18.90;45.56;98571.03;7384610;19;20271;-73
2023/04/30 10:13:09;;;;;;;0.98;0.98;;;;;;;18.96;47.72;98574.78;7384461;19;20369;-73
2023/04/30 10:15:44;;;;;;;0.65;0.65;;;;;;;18.94;49.55;98560.75;7382348;19;19922;-74
2023/04/30 10:18:25;;;;;;;0.28;0.28;;;;;;;18.92;48.59;98573.53;7385497;19;20247;-75
2023/04/30 10:20:53;;;;;;;0.45;0.45;;;;;;;19.03;47.46;98576.41;7384053;19;20597;-75
2023/04/30 10:23:21;;;;;;;0.50;0.50;;;;;;;19.15;48.10;98573.97;7385471;19;19946;-76
2023/04/30 10:25:48;;;;;;;0.95;0.95;;;;;;;18.84;43.84;98572.69;7383295;19;19925;-77
2023/04/30 10:28:15;;;;;;;0.63;0.63;;;;;;;18.93;45.47;98567.97;7384710;19;20397;-76
2023/04/30 10:30:42;;;;;;;0.70;0.70;;;;;;;18.76;47.77;98569.38;7378019;19;19915;-76
2023/04/30 10:33:22;;;;;;;0.70;0.70;;;;;;;18.78;46.05;98568.16;7388530;19;20323;-74
2023/04/30 10:35:56;;;;;;;0.38;0.38;;;;;;;18.74;47.34;98572.22;7381494;19;19984;-75
2023/04/30 10:38:28;;;;;;;0.65;0.65;;;;;;;18.80;45.85;98571.47;7380552;19;19937;-74
2023/04/30 10:41:02;;;;;;;0.52;0.52;;;;;;;18.84;45.81;98570.00;7383995;19;19915;-74
2023/04/30 10:43:30;;;;;;;0.60;0.60;;;;;;;18.66;46.40;98575.09;7386925;19;19933;-75
2023/04/30 10:45:57;;;;;;;0.55;0.55;;;;;;;18.65;48.10;98570.78;7382226;19;19984;-75
2023/04/30 10:48:25;;;;;;;0.52;0.52;;;;;;;18.78;46.91;98570.00;7381016;19;19938;-75
2023/04/30 10:50:55;;;;;;;0.73;0.73;;;;;;;18.82;47.52;98561.34;7380819;19;19918;-75
2023/04/30 10:53:24;;;;;;;0.95;0.95;;;;;;;18.85;45.69;98568.16;7392590;19;20398;-75
2023/04/30 10:56:07;;;;;;;0.43;0.43;;;;;;;18.90;46.19;98562.19;7389140;19;20260;-76
2023/04/30 10:58:37;;;;;;;0.77;0.77;;;;;;;18.81;47.22;98561.56;7387999;19;19948;-75
2023/04/30 11:01:10;;;;;;;1.33;1.27;;;;;;;18.91;47.03;98550.44;7391021;19;19918;-75
2023/04/30 11:03:41;;;;;;;0.57;0.57;;;;;;;19.05;45.59;98554.78;7387398;19;19950;-75
2023/04/30 11:06:11;;;;;;;;;;;;;;;19.10;45.93;98554.97;7391575;19;19927;-76
2023/04/30 11:08:41;;;;;;;0.40;0.40;;;;;;;19.26;46.67;98548.38;7390310;19;19943;-74
2023/04/30 11:11:09;;;;;;;0.57;0.57;;;;;;;19.39;45.92;98553.72;7392363;19;19919;-75
2023/04/30 11:13:47;;;;;;;0.95;0.95;;;;;;;19.47;45.18;98550.00;7386421;19;19923;-75
2023/04/30 11:16:18;;;;;;;1.35;1.27;;;;;;;19.66;45.58;98546.47;7391488;19;19922;-75
2023/04/30 11:18:46;;;;;;;0.30;0.30;;;;;;;19.65;46.05;98552.84;7386429;19;19978;-74
2023/04/30 11:21:13;;;;;;;0.60;0.60;;;;;;;19.59;45.32;98553.72;7388647;19;19930;-74
2023/04/30 11:23:42;;;;;;;0.47;0.47;;;;;;;19.38;43.16;98546.72;7389334;19;19926;-74
2023/04/30 11:26:09;;;;;;;0.43;0.43;;;;;;;19.36;45.88;98547.97;7390684;19;19914;-75
2023/04/30 11:28:36;;;;;;;0.73;0.73;;;;;;;19.40;45.81;98541.13;7384663;19;19957;-77
2023/04/30 11:31:04;;;;;;;1.02;0.60;;;;;;;19.53;45.98;98546.47;7390602;19;19929;-75
2023/04/30 11:33:32;;;;;;;0.68;0.68;;;;;;;19.60;46.12;98541.13;7386209;19;19981;-75
2023/04/30 11:36:00;;;;;;;2.05;1.45;;;;;;;19.70;46.32;98534.31;7385899;19;19919;-75
2023/04/30 11:38:33;;;;;;;0.50;0.50;;;;;;;19.87;44.37;98531.97;7389928;19;20255;-72
2023/04/30 11:41:01;;;;;;;0.40;0.40;;;;;;;20.02;43.41;98526.34;7391081;19;19918;-75